createdAt,value
2018-08-06T07:05:54.532Z,23.82
2018-08-06T07:08:23.389Z,23.92
2018-08-06T07:10:52.890Z,23.93
2018-08-06T07:13:21.572Z,23.94
2018-08-06T07:15:50.243Z,23.95
2018-08-06T07:21:21.875Z,24.33
2018-08-06T07:23:51.376Z,24.48
2018-08-06T07:26:20.807Z,24.61
2018-08-06T07:28:50.813Z,24.60
2018-08-06T07:31:20.281Z,24.69
2018-08-06T07:33:49.739Z,24.74
2018-08-06T07:36:18.342Z,24.78
2018-08-06T07:38:46.918Z,24.84
2018-08-06T07:41:15.584Z,24.79
2018-08-06T07:43:44.212Z,24.82
2018-08-06T07:46:13.100Z,24.75
2018-08-06T07:48:57.395Z,24.83
2018-08-06T07:51:32.097Z,24.83
2018-08-06T07:54:01.701Z,24.81
2018-08-06T07:56:30.418Z,24.92
2018-08-06T07:58:59.008Z,25.01
2018-08-06T08:01:27.631Z,25.00
2018-08-06T08:03:56.368Z,25.05
2018-08-06T08:06:25.062Z,24.99
2018-08-06T08:08:53.650Z,25.06
2018-08-06T08:11:22.212Z,25.25
2018-08-06T08:13:50.868Z,25.35
2018-08-06T08:16:19.595Z,25.41
2018-08-06T08:18:48.237Z,25.65
2018-08-06T08:21:16.924Z,25.82
2018-08-06T08:23:45.547Z,25.84
2018-08-06T08:26:14.179Z,25.95
2018-08-06T08:28:42.855Z,25.79
2018-08-06T08:31:12.367Z,25.69
2018-08-06T08:33:41.014Z,25.73
2018-08-06T08:36:09.758Z,25.91
2018-08-06T08:38:38.287Z,26.02
2018-08-06T08:41:07.007Z,25.97
2018-08-06T08:43:35.628Z,25.74
2018-08-06T08:46:04.260Z,25.84
2018-08-06T08:48:32.969Z,25.89
2018-08-06T08:51:01.602Z,25.88
2018-08-06T08:53:30.284Z,25.94
2018-08-06T08:55:58.997Z,26.03
2018-08-06T08:58:27.582Z,26.08
2018-08-06T09:00:56.361Z,26.10
2018-08-06T09:03:25.087Z,26.19
2018-08-06T09:05:54.012Z,26.34
2018-08-06T09:08:23.401Z,26.55
2018-08-06T09:10:51.996Z,26.71
2018-08-06T09:13:20.601Z,26.83
2018-08-06T09:15:49.200Z,26.81
2018-08-06T09:18:17.964Z,26.88
2018-08-06T09:21:01.819Z,26.92
2018-08-06T09:23:30.459Z,26.98
2018-08-06T09:28:07.180Z,27.05
2018-08-06T09:30:35.814Z,27.03
2018-08-06T09:33:04.416Z,27.08
2018-08-06T09:35:33.229Z,27.24
2018-08-06T09:38:01.973Z,27.25
2018-08-06T09:40:30.658Z,27.34
2018-08-06T09:42:59.400Z,27.37
2018-08-06T09:45:28.008Z,27.53
2018-08-06T09:47:56.712Z,27.63
2018-08-06T09:50:25.368Z,27.69
2018-08-06T09:52:54.667Z,27.84
2018-08-06T09:55:28.658Z,28.09
2018-08-06T09:58:18.408Z,28.25
2018-08-06T10:00:53.016Z,28.23
2018-08-06T10:03:21.620Z,28.31
2018-08-06T10:05:50.363Z,28.20
2018-08-06T10:08:18.867Z,28.03
2018-08-06T10:10:47.548Z,28.12
2018-08-06T10:13:16.265Z,28.34
2018-08-06T10:15:44.864Z,28.52
2018-08-06T10:18:13.476Z,28.60
2018-08-06T10:20:42.203Z,28.78
2018-08-06T10:23:11.021Z,28.73
2018-08-06T10:25:39.813Z,28.71
2018-08-06T10:28:08.380Z,28.75
2018-08-06T10:30:37.131Z,28.74
2018-08-06T10:33:06.837Z,28.69
2018-08-06T10:35:36.357Z,28.79
2018-08-06T10:38:04.962Z,28.81
2018-08-06T10:40:33.703Z,28.98
2018-08-06T10:43:02.197Z,28.98
2018-08-06T10:45:30.780Z,28.69
2018-08-06T10:47:59.408Z,28.47
2018-08-06T10:50:28.032Z,28.54
2018-08-06T10:52:56.629Z,28.70
2018-08-06T10:55:25.268Z,28.88
2018-08-06T10:57:53.972Z,29.27
2018-08-06T11:00:23.589Z,29.59
2018-08-06T11:02:52.453Z,29.56
2018-08-06T11:05:21.408Z,29.57
2018-08-06T11:07:50.068Z,29.43
2018-08-06T11:10:21.012Z,29.53
2018-08-06T11:12:49.640Z,29.68
2018-08-06T11:15:20.361Z,29.73
2018-08-06T11:17:49.161Z,29.83
2018-08-06T11:20:18.495Z,30.06
2018-08-06T11:22:47.147Z,30.28
2018-08-06T11:25:17.816Z,30.30
2018-08-06T11:27:46.640Z,30.23
2018-08-06T11:30:17.907Z,30.03
2018-08-06T11:32:47.404Z,30.05
2018-08-06T11:47:35.351Z,30.96
2018-08-06T11:50:04.551Z,31.08
2018-08-06T11:52:33.173Z,31.03
2018-08-06T12:09:19.240Z,31.87
2018-08-06T12:11:47.817Z,32.01
2018-08-06T12:19:58.116Z,31.34
2018-08-06T12:22:27.024Z,30.82
2018-08-06T12:24:55.559Z,30.43
2018-08-06T12:27:24.362Z,30.69
2018-08-06T12:29:53.080Z,31.04
2018-08-06T12:33:57.103Z,31.37
2018-08-06T12:36:25.836Z,31.33
2018-08-06T12:39:11.072Z,31.51
2018-08-06T12:41:39.688Z,31.69
2018-08-06T12:44:10.448Z,31.51
2018-08-06T12:46:39.214Z,31.06
2018-08-06T12:49:08.586Z,31.20
2018-08-06T12:51:37.493Z,31.43
2018-08-06T12:54:06.620Z,31.44
2018-08-06T12:56:35.333Z,31.16
2018-08-06T12:59:04.050Z,31.31
2018-08-06T13:01:32.651Z,31.35
2018-08-06T13:04:01.296Z,30.86
2018-08-06T13:06:29.984Z,30.70
2018-08-06T13:08:58.712Z,30.84
2018-08-06T13:11:27.530Z,30.94
2018-08-06T13:13:56.111Z,30.96
2018-08-06T13:16:25.507Z,30.99
2018-08-06T13:18:54.046Z,30.98
2018-08-06T13:21:22.623Z,31.17
2018-08-06T13:23:51.218Z,31.31
2018-08-06T13:26:20.576Z,31.45
2018-08-06T13:28:49.144Z,31.24
2018-08-06T13:31:18.626Z,31.47
2018-08-06T13:33:47.227Z,31.68
2018-08-06T13:36:16.229Z,31.74
2018-08-06T13:38:44.785Z,31.92
2018-08-06T13:41:13.463Z,32.00
2018-08-06T13:43:42.035Z,32.15
2018-08-06T13:46:10.687Z,32.15
2018-08-06T13:48:39.393Z,32.16
2018-08-06T13:51:08.174Z,32.22
2018-08-06T13:53:36.790Z,31.99
2018-08-06T13:56:05.485Z,32.14
2018-08-06T13:58:34.115Z,32.24
2018-08-06T14:01:02.760Z,31.69
2018-08-06T14:03:31.470Z,31.98
2018-08-06T14:06:00.860Z,32.00
2018-08-06T14:08:29.613Z,32.21
2018-08-06T14:10:58.195Z,32.26
2018-08-06T14:13:26.800Z,32.25
2018-08-06T14:15:55.449Z,32.45
2018-08-06T14:18:24.208Z,32.59
2018-08-06T14:20:52.791Z,32.76
2018-08-06T14:23:21.395Z,32.34
2018-08-06T14:25:50.068Z,32.52
2018-08-06T14:28:18.611Z,32.54
2018-08-06T14:30:47.227Z,32.71
2018-08-06T14:33:15.799Z,32.88
2018-08-06T14:35:44.390Z,32.45
2018-08-06T14:38:13.012Z,32.33
2018-08-06T14:40:41.610Z,31.97
2018-08-06T14:43:10.170Z,32.17
2018-08-06T14:45:38.733Z,32.34
2018-08-06T14:48:07.340Z,32.36
2018-08-06T14:50:35.975Z,32.28
2018-08-06T14:53:04.631Z,32.24
2018-08-06T14:55:33.262Z,31.86
2018-08-06T14:58:02.555Z,31.85
2018-08-06T15:00:31.123Z,31.96
2018-08-06T15:02:59.712Z,31.93
2018-08-06T15:05:28.338Z,32.07
2018-08-06T15:07:56.955Z,31.62
2018-08-06T15:10:25.572Z,31.79
2018-08-06T15:12:54.216Z,32.06
2018-08-06T15:15:22.933Z,32.18
2018-08-06T15:17:51.535Z,32.27
2018-08-06T15:20:20.106Z,32.42
2018-08-06T15:22:48.729Z,32.33
2018-08-06T15:25:20.881Z,32.58
2018-08-06T15:27:50.489Z,32.68
2018-08-06T15:30:19.143Z,32.64
2018-08-06T15:32:47.696Z,32.61
2018-08-06T15:35:16.392Z,32.38
2018-08-06T15:37:45.460Z,32.28
2018-08-06T15:40:16.198Z,31.88
2018-08-06T15:42:44.849Z,31.67
2018-08-06T15:45:14.020Z,31.96
2018-08-06T15:47:43.466Z,32.17
2018-08-06T15:50:16.004Z,32.30
2018-08-06T15:52:44.711Z,32.27
2018-08-06T15:55:14.380Z,32.38
2018-08-06T15:57:43.171Z,32.48
2018-08-06T16:00:14.032Z,32.52
2018-08-06T16:04:57.654Z,32.56
2018-08-06T16:07:26.428Z,32.05
2018-08-06T16:09:55.758Z,32.12
2018-08-06T16:12:24.580Z,32.01
2018-08-06T16:14:53.215Z,31.73
2018-08-06T16:23:18.305Z,31.29
2018-08-06T16:25:46.924Z,30.87
2018-08-06T16:28:15.559Z,31.11
2018-08-06T16:30:44.234Z,31.26
2018-08-06T16:33:12.860Z,31.16
2018-08-06T16:35:41.567Z,30.93
2018-08-06T16:38:10.235Z,31.06
2018-08-06T16:40:38.873Z,31.01
2018-08-06T16:43:07.496Z,31.03
2018-08-06T16:45:36.173Z,31.00
2018-08-06T16:48:04.821Z,31.15
2018-08-06T16:50:33.549Z,31.19
2018-08-06T16:53:02.180Z,31.24
2018-08-06T16:55:30.863Z,31.25
2018-08-06T16:57:59.494Z,31.12
2018-08-06T17:00:28.167Z,31.10
2018-08-06T17:02:56.801Z,31.11
2018-08-06T17:05:25.645Z,31.06
2018-08-06T17:07:54.256Z,30.99
2018-08-06T17:10:22.912Z,30.93
2018-08-06T17:12:53.716Z,30.65
2018-08-06T17:15:22.895Z,30.56
2018-08-06T17:17:53.096Z,30.56
2018-08-06T17:20:22.775Z,30.49
2018-08-06T17:22:52.068Z,30.38
2018-08-06T17:28:10.827Z,30.04
2018-08-06T17:30:39.441Z,29.87
2018-08-06T17:33:09.664Z,29.40
2018-08-06T17:35:38.276Z,28.97
2018-08-06T17:38:07.066Z,28.60
2018-08-06T17:40:35.659Z,28.13
2018-08-06T17:43:04.295Z,28.05
2018-08-06T17:45:32.995Z,27.86
2018-08-06T17:48:01.619Z,27.77
2018-08-06T17:50:30.201Z,27.76
2018-08-06T17:52:58.799Z,27.79
2018-08-06T17:55:27.409Z,27.73
2018-08-06T17:57:55.991Z,27.68
2018-08-06T18:00:24.701Z,27.69
2018-08-06T18:02:53.321Z,27.65
2018-08-06T18:05:22.568Z,27.50
2018-08-06T18:07:51.338Z,27.32
2018-08-06T18:10:21.697Z,27.25
2018-08-06T18:12:50.371Z,27.09
2018-08-06T18:15:18.932Z,26.91
2018-08-06T18:17:47.514Z,26.88
2018-08-06T18:20:18.001Z,26.74
2018-08-06T18:22:46.618Z,26.48
2018-08-06T18:25:17.649Z,26.37
2018-08-06T18:27:47.362Z,26.25
2018-08-06T18:30:18.100Z,26.17
2018-08-06T18:32:46.805Z,25.91
2018-08-06T18:35:18.072Z,25.86
2018-08-06T18:37:46.756Z,25.81
2018-08-06T18:40:16.436Z,25.76
2018-08-06T18:42:45.023Z,25.62
2018-08-06T18:45:16.220Z,25.53
2018-08-06T18:47:45.827Z,25.53
2018-08-06T18:50:15.227Z,25.52
2018-08-06T18:52:45.045Z,25.42
2018-08-06T18:55:15.426Z,25.37
2018-08-06T18:57:44.601Z,25.25
2018-08-06T19:00:18.479Z,24.96
2018-08-06T19:02:47.077Z,24.75
2018-08-06T19:05:15.735Z,24.67
2018-08-06T19:07:44.420Z,24.37
2018-08-06T19:10:13.161Z,24.26
2018-08-06T19:12:46.894Z,23.93
2018-08-06T19:15:15.855Z,23.99
2018-08-06T19:17:49.579Z,24.01
2018-08-06T19:20:18.177Z,24.06
2018-08-06T19:22:46.841Z,23.83
2018-08-06T19:25:20.992Z,23.86
2018-08-06T19:27:49.707Z,23.74
2018-08-06T19:30:18.780Z,23.73
2018-08-06T19:32:47.398Z,23.85
2018-08-06T19:35:17.063Z,23.97
2018-08-06T19:37:47.331Z,24.07
2018-08-06T19:40:16.485Z,24.11
2018-08-06T19:42:50.281Z,24.01
2018-08-06T19:45:19.166Z,24.07
2018-08-06T19:47:48.536Z,24.11
2018-08-06T19:50:22.362Z,23.93
2018-08-06T19:52:50.936Z,23.75
2018-08-06T19:55:24.640Z,23.83
2018-08-06T19:57:53.260Z,23.85
2018-08-06T20:00:21.828Z,23.93
2018-08-06T20:02:50.453Z,23.94
2018-08-06T20:05:19.055Z,23.90
2018-08-06T20:07:54.410Z,23.55
2018-08-06T20:10:23.062Z,23.55
2018-08-06T20:12:51.671Z,23.50
2018-08-06T20:15:20.710Z,23.42
2018-08-06T20:17:50.267Z,23.45
2018-08-06T20:20:19.071Z,23.47
2018-08-06T20:22:47.733Z,23.42
2018-08-06T20:25:18.447Z,23.44
2018-08-06T20:27:47.674Z,23.43
2018-08-06T20:30:18.503Z,23.39
2018-08-06T20:32:47.529Z,23.34
2018-08-06T20:35:17.237Z,23.35
2018-08-06T20:37:45.988Z,23.35
2018-08-06T20:40:15.060Z,23.28
2018-08-06T20:42:44.925Z,23.28
2018-08-06T20:45:16.680Z,23.26
2018-08-06T20:47:46.019Z,23.24
2018-08-06T20:50:16.408Z,23.19
2018-08-06T20:52:46.199Z,23.08
2018-08-06T20:55:14.899Z,23.04
2018-08-06T20:57:43.813Z,22.88
2018-08-06T21:00:20.545Z,22.84
2018-08-06T21:02:50.141Z,22.79
2018-08-06T21:05:18.940Z,22.76
2018-08-06T21:07:47.609Z,22.76
2018-08-06T21:10:17.121Z,22.76
2018-08-06T21:12:46.295Z,22.69
2018-08-06T21:15:16.438Z,22.62
2018-08-06T21:17:45.439Z,22.50
2018-08-06T21:20:16.179Z,22.53
2018-08-06T21:22:46.082Z,22.51
2018-08-06T21:25:14.829Z,22.48
2018-08-06T21:27:44.709Z,22.49
2018-08-06T21:30:15.437Z,22.54
2018-08-06T21:32:45.998Z,22.43
2018-08-06T21:35:15.697Z,22.38
2018-08-06T21:37:44.460Z,22.33
2018-08-06T21:40:13.952Z,22.30
2018-08-06T21:42:43.302Z,22.14
2018-08-06T21:45:12.574Z,22.11
2018-08-06T21:47:41.172Z,22.06
2018-08-06T21:50:10.741Z,22.17
2018-08-06T21:52:39.352Z,22.12
2018-08-06T21:55:08.727Z,22.13
2018-08-06T21:57:37.578Z,22.09
2018-08-06T22:00:11.956Z,21.93
2018-08-06T22:02:41.390Z,21.51
2018-08-06T22:05:10.172Z,21.44
2018-08-06T22:07:42.129Z,21.55
2018-08-06T22:10:10.904Z,21.62
2018-08-06T22:12:39.504Z,21.63
2018-08-06T22:15:08.451Z,21.64
2018-08-06T22:20:48.038Z,21.51
2018-08-06T22:23:16.956Z,21.57
2018-08-06T22:25:45.576Z,21.61
2018-08-06T22:28:14.320Z,21.63
2018-08-06T22:30:43.280Z,21.62
2018-08-06T22:33:12.776Z,21.64
2018-08-06T22:35:41.477Z,21.49
2018-08-06T22:38:10.257Z,21.47
2018-08-06T22:40:39.225Z,21.49
2018-08-06T22:43:07.883Z,21.36
2018-08-06T22:45:36.590Z,21.39
2018-08-06T22:48:05.519Z,21.37
2018-08-06T22:50:34.346Z,21.34
2018-08-06T22:53:02.933Z,21.35
2018-08-06T22:55:41.444Z,21.34
2018-08-06T22:58:10.017Z,21.41
2018-08-06T23:00:38.682Z,21.34
2018-08-06T23:03:08.954Z,21.18
2018-08-06T23:05:37.723Z,21.10
2018-08-06T23:08:06.441Z,21.13
2018-08-06T23:10:35.064Z,21.08
2018-08-06T23:13:04.217Z,20.93
2018-08-06T23:15:32.842Z,20.80
2018-08-06T23:18:01.431Z,20.79
2018-08-06T23:20:30.215Z,20.70
2018-08-06T23:22:58.885Z,20.76
2018-08-06T23:25:39.716Z,20.79
2018-08-06T23:28:08.492Z,20.75
2018-08-06T23:30:37.312Z,20.72
2018-08-06T23:33:06.391Z,20.69
2018-08-06T23:35:35.032Z,20.63
2018-08-06T23:38:03.591Z,20.66
2018-08-06T23:40:32.291Z,20.72
2018-08-06T23:43:00.904Z,20.74
2018-08-06T23:45:29.552Z,20.71
2018-08-06T23:47:58.229Z,20.78
2018-08-06T23:50:27.041Z,20.83
2018-08-06T23:52:55.683Z,20.81
2018-08-06T23:55:24.621Z,20.80
2018-08-06T23:57:53.219Z,20.79
